Red Lodge, MT

2:06 AM MDT on August 26, 2016 (GMT -0600)
Aspen Hollow, KF7KN-7 | | Change Station

Elev 5850 ft 45.16 °N, 109.27 °W | Updated 13 minutes ago

Scattered Clouds
Scattered Clouds
45.9 °F
Feels Like 43 °F
N
6.0
Wind Variable Wind from West
Gusts 9.0 mph

Today
High -- | Low -- °F
--% Chance of Precip.
Yesterday
High -- | Low -- °F
Precip. -- in
Pressure 30.18 in
Visibility 10.0 miles
Clouds Few 5000 ft
Scattered Clouds 12000 ft
Windchill 43 °F
Dew Point 40 °F
Humidity 81%
Rainfall 0.00 in
Snow Depth Not available.
6:32 AM 8:04 PM
Last Quarter, 37% visible
METAR KCOD 260755Z AUTO 18003KT 10SM FEW050 SCT120 11/06 A3018 RMK AO1
Pressure 30.18 in
Visibility 10.0 miles
Clouds Few 5000 ft
Scattered Clouds 12000 ft
Windchill 43 °F
Dew Point 40 °F
Humidity 81%
Rainfall 0.00 in
Snow Depth Not available.
6:32 AM 8:04 PM
Last Quarter, 37% visible
METAR KCOD 260755Z AUTO 18003KT 10SM FEW050 SCT120 11/06 A3018 RMK AO1

10-Day Weather Forecast

Almanac

Astronomy

Aug. 26, 2016 Rise Set
Actual Time
Civil Twilight
Nautical Twilight
Astronomical Twilight
Moon
Length of Visible Light
Length of Day
Tomorrow will be .
, % of the Moon is Illuminated

Today's Extremes

State Highs State Lows

Community

WunderPhotos

Upload Photos

1,935,062 photos uploaded!

WunderBlog® & News

Nearby

Air Quality

  Air Quality AQ Index Pollutant
Not available.

Snow Depth

Station Depth Elevation

Earthquake Activity

City Distance Mag. Time & Date
Minimum magnitude displayed is 2.5.

Coastal Water Temperatures

Place Temperature

Stations

Nearby Weather Stations

Station Location Temp. Windchill Dew Point Humidity Wind Precip. Elev Updated Type
                   

Watches & Warnings

There are currently no watches in effect.